createdAt,value
2018-10-21T00:00:03.227Z,8.80
2018-10-21T00:02:31.460Z,8.70
2018-10-21T00:04:59.694Z,8.70
2018-10-21T00:07:27.917Z,8.70
2018-10-21T00:09:56.111Z,8.70
2018-10-21T00:12:24.346Z,8.60
2018-10-21T00:14:52.566Z,8.60
2018-10-21T00:17:20.851Z,8.50
2018-10-21T00:19:49.156Z,8.50
2018-10-21T00:22:17.543Z,8.50
2018-10-21T00:24:45.767Z,8.40
2018-10-21T00:27:14.092Z,8.40
2018-10-21T00:29:42.314Z,8.40
2018-10-21T00:32:10.581Z,8.40
2018-10-21T00:34:38.855Z,8.40
2018-10-21T00:37:07.091Z,8.40
2018-10-21T00:39:35.353Z,8.40
2018-10-21T00:42:03.579Z,8.40
2018-10-21T00:44:31.774Z,8.30
2018-10-21T00:47:00.002Z,8.30
2018-10-21T00:49:28.263Z,8.30
2018-10-21T00:51:56.483Z,8.20
2018-10-21T00:54:24.694Z,8.20
2018-10-21T00:56:52.934Z,8.30
2018-10-21T00:59:21.234Z,8.20
2018-10-21T01:01:49.482Z,8.20
2018-10-21T01:04:17.759Z,8.20
2018-10-21T01:06:45.946Z,8.10
2018-10-21T01:09:14.265Z,8.10
2018-10-21T01:11:43.054Z,8.10
2018-10-21T01:14:11.446Z,8.10
2018-10-21T01:16:39.751Z,8.10
2018-10-21T01:19:07.956Z,8.10
2018-10-21T01:21:36.737Z,8.00
2018-10-21T01:24:05.498Z,8.00
2018-10-21T01:26:33.696Z,8.00
2018-10-21T01:29:01.914Z,8.00
2018-10-21T01:31:30.111Z,7.90
2018-10-21T01:33:58.332Z,7.90
2018-10-21T01:36:26.921Z,7.90
2018-10-21T01:38:54.839Z,7.90
2018-10-21T01:41:23.054Z,7.90
2018-10-21T01:43:51.366Z,7.90
2018-10-21T01:46:19.597Z,7.80
2018-10-21T01:48:47.830Z,7.80
2018-10-21T01:51:16.075Z,7.80
2018-10-21T01:53:44.303Z,7.80
2018-10-21T01:56:12.521Z,7.80
2018-10-21T01:58:41.285Z,7.70
2018-10-21T02:01:09.550Z,7.70
2018-10-21T02:03:37.748Z,7.70
2018-10-21T02:06:06.231Z,7.70
2018-10-21T02:08:34.506Z,7.60
2018-10-21T02:11:02.715Z,7.60
2018-10-21T02:13:30.887Z,7.60
2018-10-21T02:15:59.095Z,7.60
2018-10-21T02:18:27.359Z,7.60
2018-10-21T02:20:55.640Z,7.60
2018-10-21T02:23:23.818Z,7.60
2018-10-21T02:25:52.010Z,7.60
2018-10-21T02:28:20.250Z,7.60
2018-10-21T02:30:48.455Z,7.50
2018-10-21T02:33:16.788Z,7.50
2018-10-21T02:35:44.915Z,7.50
2018-10-21T02:38:13.162Z,7.50
2018-10-21T02:42:01.654Z,7.50
2018-10-21T02:44:29.862Z,7.50
2018-10-21T02:46:58.312Z,7.50
2018-10-21T02:49:26.571Z,7.50
2018-10-21T02:52:00.142Z,7.40
2018-10-21T02:54:29.541Z,7.40
2018-10-21T02:56:57.789Z,7.40
2018-10-21T02:59:26.236Z,7.40
2018-10-21T03:01:54.512Z,7.30
2018-10-21T03:04:23.018Z,7.30
2018-10-21T03:06:51.487Z,7.30
2018-10-21T03:09:19.795Z,7.30
2018-10-21T03:11:47.954Z,7.30
2018-10-21T03:14:16.179Z,7.20
2018-10-21T03:16:44.426Z,7.20
2018-10-21T03:19:12.651Z,7.20
2018-10-21T03:21:41.008Z,7.20
2018-10-21T03:24:09.226Z,7.20
2018-10-21T03:26:37.471Z,7.20
2018-10-21T03:29:05.751Z,7.20
2018-10-21T03:31:33.974Z,7.20
2018-10-21T03:34:02.305Z,7.20
2018-10-21T03:36:30.403Z,7.10
2018-10-21T03:40:56.476Z,7.10
2018-10-21T03:43:24.702Z,7.10
2018-10-21T03:45:52.907Z,7.00
2018-10-21T03:48:21.118Z,7.00
2018-10-21T03:50:49.401Z,7.00
2018-10-21T03:53:17.601Z,7.00
2018-10-21T03:55:45.858Z,7.00
2018-10-21T03:58:14.313Z,7.00
2018-10-21T04:00:42.534Z,7.00
2018-10-21T04:03:10.767Z,7.00
2018-10-21T04:05:38.996Z,7.00
2018-10-21T04:08:07.191Z,6.90
2018-10-21T04:10:35.560Z,6.90
2018-10-21T04:13:03.839Z,6.90
2018-10-21T04:15:32.042Z,6.90
2018-10-21T04:18:00.274Z,6.90
2018-10-21T04:20:28.519Z,6.90
2018-10-21T04:22:58.948Z,6.90
2018-10-21T04:25:28.157Z,6.90
2018-10-21T04:27:57.323Z,6.90
2018-10-21T04:30:27.703Z,6.90
2018-10-21T04:33:01.379Z,6.90
2018-10-21T04:35:30.233Z,6.80
2018-10-21T04:40:22.187Z,6.80
2018-10-21T04:42:50.978Z,6.70
2018-10-21T04:45:21.442Z,6.70
2018-10-21T04:47:49.636Z,6.60
2018-10-21T04:50:17.827Z,6.30
2018-10-21T04:52:46.075Z,6.40
2018-10-21T04:55:16.938Z,6.40
2018-10-21T04:57:46.332Z,6.40
2018-10-21T05:00:16.699Z,6.40
2018-10-21T05:02:44.902Z,6.40
2018-10-21T05:05:14.114Z,6.40
2018-10-21T05:07:42.645Z,6.50
2018-10-21T05:10:30.568Z,6.50
2018-10-21T05:12:58.930Z,6.40
2018-10-21T05:15:28.350Z,6.40
2018-10-21T05:17:56.735Z,6.40
2018-10-21T05:20:24.954Z,6.40
2018-10-21T05:22:53.194Z,6.40
2018-10-21T05:25:21.411Z,6.40
2018-10-21T05:27:49.631Z,6.40
2018-10-21T05:30:17.875Z,6.40
2018-10-21T05:32:46.098Z,6.40
2018-10-21T05:35:15.459Z,6.40
2018-10-21T05:37:43.708Z,6.40
2018-10-21T05:40:14.012Z,6.40
2018-10-21T05:42:42.700Z,6.40
2018-10-21T05:45:10.959Z,6.40
2018-10-21T05:47:39.700Z,6.40
2018-10-21T05:50:08.987Z,6.40
2018-10-21T05:52:37.494Z,6.40
2018-10-21T05:55:06.053Z,6.40
2018-10-21T05:57:34.299Z,6.40
2018-10-21T06:00:02.638Z,6.40
2018-10-21T06:02:30.910Z,6.30
2018-10-21T06:04:59.112Z,6.30
2018-10-21T06:07:27.310Z,6.40
2018-10-21T06:09:55.558Z,6.40
2018-10-21T06:12:23.766Z,6.40
2018-10-21T06:14:51.983Z,6.30
2018-10-21T06:17:27.006Z,6.30
2018-10-21T06:19:58.818Z,6.40
2018-10-21T06:22:27.038Z,6.30
2018-10-21T06:24:55.243Z,6.30
2018-10-21T06:27:23.464Z,6.30
2018-10-21T06:29:51.666Z,6.30
2018-10-21T06:32:19.863Z,6.40
2018-10-21T06:34:48.067Z,6.40
2018-10-21T06:37:16.303Z,6.40
2018-10-21T06:39:44.534Z,6.50
2018-10-21T06:42:12.759Z,6.50
2018-10-21T06:44:41.067Z,6.50
2018-10-21T06:47:09.274Z,6.50
2018-10-21T06:49:37.644Z,6.60
2018-10-21T06:52:06.030Z,6.60
2018-10-21T06:54:34.471Z,6.50
2018-10-21T06:57:02.829Z,6.50
2018-10-21T06:59:30.950Z,6.60
2018-10-21T07:01:59.178Z,6.60
2018-10-21T07:04:27.487Z,6.70
2018-10-21T07:06:55.699Z,6.80
2018-10-21T07:09:23.895Z,6.90
2018-10-21T07:11:52.106Z,6.90
2018-10-21T07:14:20.302Z,7.00
2018-10-21T07:16:48.617Z,7.10
2018-10-21T07:19:16.726Z,7.10
2018-10-21T07:21:44.962Z,7.10
2018-10-21T07:24:13.191Z,7.10
2018-10-21T07:26:41.622Z,7.20
2018-10-21T07:29:09.931Z,7.20
2018-10-21T07:31:38.272Z,7.30
2018-10-21T07:34:06.510Z,7.20
2018-10-21T07:36:34.770Z,7.20
2018-10-21T07:39:03.455Z,7.30
2018-10-21T07:41:31.682Z,7.40
2018-10-21T07:43:59.898Z,7.40
2018-10-21T07:46:28.223Z,7.50
2018-10-21T07:48:56.468Z,7.60
2018-10-21T07:51:24.696Z,7.70
2018-10-21T07:53:52.911Z,7.80
2018-10-21T07:56:21.159Z,8.00
2018-10-21T07:58:49.395Z,8.10
2018-10-21T08:01:17.635Z,8.20
2018-10-21T08:03:45.854Z,8.30
2018-10-21T08:06:27.838Z,8.40
2018-10-21T08:08:56.075Z,8.50
2018-10-21T08:11:24.286Z,8.60
2018-10-21T08:13:52.719Z,8.70
2018-10-21T08:16:21.179Z,8.70
2018-10-21T08:18:49.994Z,8.80
2018-10-21T08:21:18.276Z,8.90
2018-10-21T08:23:46.431Z,8.90
2018-10-21T08:26:14.667Z,9.00
2018-10-21T08:28:42.875Z,9.10
2018-10-21T08:31:11.112Z,9.20
2018-10-21T08:33:39.379Z,9.30
2018-10-21T08:36:08.005Z,9.40
2018-10-21T08:38:36.643Z,9.40
2018-10-21T08:41:05.091Z,9.30
2018-10-21T08:43:33.310Z,9.40
2018-10-21T08:46:01.648Z,9.60
2018-10-21T08:48:29.766Z,9.60
2018-10-21T08:50:58.007Z,9.70
2018-10-21T08:53:26.259Z,9.80
2018-10-21T08:55:54.535Z,10.00
2018-10-21T08:58:22.695Z,10.10
2018-10-21T09:00:50.954Z,10.20
2018-10-21T09:03:19.190Z,10.30
2018-10-21T09:05:47.398Z,10.40
2018-10-21T09:08:15.637Z,10.50
2018-10-21T09:10:43.925Z,10.60
2018-10-21T09:13:12.180Z,10.60
2018-10-21T09:15:40.430Z,10.70
2018-10-21T09:18:08.655Z,10.90
2018-10-21T09:20:36.894Z,11.10
2018-10-21T09:23:05.144Z,11.20
2018-10-21T09:25:33.403Z,11.30
2018-10-21T09:28:01.698Z,11.40
2018-10-21T09:30:29.924Z,11.50
2018-10-21T09:32:58.154Z,11.60
2018-10-21T09:35:26.371Z,11.70
2018-10-21T09:37:54.591Z,11.90
2018-10-21T09:40:22.787Z,12.00
2018-10-21T09:42:51.196Z,12.00
2018-10-21T09:45:20.601Z,12.10
2018-10-21T09:47:48.830Z,12.20
2018-10-21T09:50:17.040Z,12.30
2018-10-21T09:52:45.263Z,12.40
2018-10-21T09:55:18.388Z,12.50
2018-10-21T09:57:47.283Z,12.60
2018-10-21T10:00:21.019Z,12.80
2018-10-21T10:02:54.722Z,12.90
2018-10-21T10:05:23.129Z,13.00
2018-10-21T10:07:51.723Z,13.10
2018-10-21T10:10:19.919Z,13.30
2018-10-21T10:12:48.170Z,13.40
2018-10-21T10:15:16.570Z,13.60
2018-10-21T10:17:44.927Z,13.70
2018-10-21T10:20:13.182Z,13.80
2018-10-21T10:22:41.518Z,13.90
2018-10-21T10:25:10.802Z,14.00
2018-10-21T10:27:38.993Z,14.20
2018-10-21T10:30:08.951Z,14.30
2018-10-21T10:32:37.412Z,14.30
2018-10-21T10:35:06.043Z,14.40
2018-10-21T10:37:34.431Z,14.60
2018-10-21T10:40:02.719Z,14.70
2018-10-21T10:42:30.938Z,14.80
2018-10-21T10:44:59.146Z,14.80
2018-10-21T10:47:27.350Z,15.00
2018-10-21T10:49:55.586Z,15.20
2018-10-21T10:52:23.825Z,15.30
2018-10-21T10:54:52.139Z,15.40
2018-10-21T10:57:20.407Z,15.50
2018-10-21T10:59:48.724Z,15.60
2018-10-21T11:02:16.923Z,15.80
2018-10-21T11:04:45.203Z,16.40
2018-10-21T11:07:13.527Z,17.40
2018-10-21T11:09:41.815Z,18.20
2018-10-21T11:12:10.034Z,18.90
2018-10-21T11:14:38.281Z,19.80
2018-10-21T11:17:06.563Z,20.70
2018-10-21T11:19:34.800Z,21.10
2018-10-21T11:22:03.111Z,22.00
2018-10-21T11:24:31.276Z,21.90
2018-10-21T11:26:59.634Z,21.80
2018-10-21T11:29:27.856Z,21.60
2018-10-21T11:31:56.110Z,22.00
2018-10-21T11:34:24.315Z,22.40
2018-10-21T11:36:52.572Z,22.20
2018-10-21T11:39:20.798Z,22.20
2018-10-21T11:41:49.075Z,22.60
2018-10-21T11:44:17.306Z,23.40
2018-10-21T11:46:45.518Z,23.40
2018-10-21T11:49:13.856Z,23.50
2018-10-21T11:51:42.066Z,23.30
2018-10-21T11:54:10.296Z,23.70
2018-10-21T11:56:38.653Z,24.00
2018-10-21T11:59:07.970Z,24.60
2018-10-21T12:01:36.287Z,25.20
2018-10-21T12:04:04.543Z,25.10
2018-10-21T12:06:32.790Z,25.50
2018-10-21T12:09:01.035Z,26.00
2018-10-21T12:11:29.286Z,25.80
2018-10-21T12:13:57.602Z,25.80
2018-10-21T12:16:25.887Z,25.80
2018-10-21T12:18:54.131Z,25.90
2018-10-21T12:21:22.375Z,26.40
2018-10-21T12:23:50.613Z,26.30
2018-10-21T12:26:18.839Z,26.30
2018-10-21T12:28:47.067Z,26.90
2018-10-21T12:31:15.322Z,27.10
2018-10-21T12:33:44.452Z,27.30
2018-10-21T12:36:14.343Z,26.50
2018-10-21T12:38:42.694Z,26.10
2018-10-21T12:41:11.530Z,26.70
2018-10-21T12:43:40.654Z,27.10
2018-10-21T12:46:09.034Z,27.20
2018-10-21T12:48:37.230Z,27.00
2018-10-21T12:51:05.579Z,26.90
2018-10-21T12:53:33.839Z,26.60
2018-10-21T12:56:02.102Z,26.10
2018-10-21T12:58:30.350Z,25.90
2018-10-21T13:00:58.584Z,26.30
2018-10-21T13:03:26.846Z,26.20
2018-10-21T13:05:55.096Z,26.40
2018-10-21T13:08:23.358Z,26.70
2018-10-21T13:10:51.571Z,27.30
2018-10-21T13:13:19.821Z,27.20
2018-10-21T13:15:48.028Z,27.00
2018-10-21T13:18:16.234Z,27.00
2018-10-21T13:20:44.504Z,27.10
2018-10-21T13:23:12.726Z,26.80
2018-10-21T13:25:40.971Z,27.50
2018-10-21T13:28:09.224Z,27.90
2018-10-21T13:30:37.451Z,28.60
2018-10-21T13:33:05.798Z,28.60
2018-10-21T13:35:34.033Z,28.70
2018-10-21T13:38:02.367Z,28.30
2018-10-21T13:40:30.609Z,28.40
2018-10-21T13:42:58.827Z,28.70
2018-10-21T13:45:27.015Z,29.00
2018-10-21T13:47:55.268Z,29.40
2018-10-21T13:50:23.530Z,30.10
2018-10-21T13:52:51.836Z,29.30
2018-10-21T13:55:19.987Z,29.20
2018-10-21T13:57:48.170Z,29.00
2018-10-21T14:00:16.383Z,28.90
2018-10-21T14:02:44.639Z,28.50
2018-10-21T14:05:12.864Z,28.90
2018-10-21T14:07:41.183Z,29.80
2018-10-21T14:10:09.662Z,30.20
2018-10-21T14:12:37.884Z,30.30
2018-10-21T14:15:06.462Z,29.90
2018-10-21T14:17:34.751Z,29.10
2018-10-21T14:20:03.006Z,28.70
2018-10-21T14:22:31.268Z,28.10
2018-10-21T14:24:59.570Z,28.40
2018-10-21T14:27:27.759Z,28.60
2018-10-21T14:29:55.981Z,28.70
2018-10-21T14:32:24.182Z,29.10
2018-10-21T14:34:52.394Z,29.30
2018-10-21T14:37:20.621Z,29.70
2018-10-21T14:39:48.874Z,30.30
2018-10-21T14:42:17.153Z,30.60
2018-10-21T14:44:45.335Z,29.90
2018-10-21T14:47:13.579Z,29.60
2018-10-21T14:49:41.858Z,29.60
2018-10-21T14:52:10.102Z,29.00
2018-10-21T14:54:38.343Z,28.40
2018-10-21T14:57:06.590Z,27.90
2018-10-21T14:59:34.991Z,27.80
2018-10-21T15:02:03.233Z,27.40
2018-10-21T15:04:31.402Z,26.60
2018-10-21T15:06:59.607Z,25.50
2018-10-21T15:09:27.991Z,24.90
2018-10-21T15:11:56.139Z,24.40
2018-10-21T15:14:24.370Z,23.30
2018-10-21T15:16:52.615Z,23.10
2018-10-21T15:19:20.866Z,22.80
2018-10-21T15:21:49.094Z,23.00
2018-10-21T15:24:17.333Z,23.40
2018-10-21T15:26:45.570Z,23.90
2018-10-21T15:29:13.950Z,24.00
2018-10-21T15:31:42.251Z,23.90
2018-10-21T15:34:10.522Z,23.60
2018-10-21T15:36:38.725Z,23.40
2018-10-21T15:39:08.866Z,23.40
2018-10-21T15:41:37.103Z,23.50
2018-10-21T15:44:05.858Z,23.80
2018-10-21T15:46:34.015Z,23.80
2018-10-21T15:49:02.368Z,23.50
2018-10-21T15:51:30.503Z,23.30
2018-10-21T15:53:58.706Z,23.00
2018-10-21T15:56:26.947Z,22.80
2018-10-21T15:58:55.164Z,22.40
2018-10-21T16:01:23.386Z,22.10
2018-10-21T16:03:52.166Z,21.80
2018-10-21T16:06:20.386Z,21.50
2018-10-21T16:08:48.627Z,21.20
2018-10-21T16:11:16.870Z,20.90
2018-10-21T16:13:45.180Z,20.60
2018-10-21T16:16:13.447Z,20.30
2018-10-21T16:18:41.698Z,20.10
2018-10-21T16:21:09.954Z,19.80
2018-10-21T16:23:38.231Z,19.60
2018-10-21T16:26:06.555Z,19.40
2018-10-21T16:28:34.791Z,19.20
2018-10-21T16:31:03.051Z,19.00
2018-10-21T16:33:31.294Z,18.80
2018-10-21T16:35:59.531Z,18.60
2018-10-21T16:38:27.817Z,18.40
2018-10-21T16:40:55.987Z,18.30
2018-10-21T16:43:24.219Z,18.10
2018-10-21T16:45:52.494Z,18.00
2018-10-21T16:48:20.767Z,17.80
2018-10-21T16:50:49.036Z,17.70
2018-10-21T16:53:17.295Z,17.60
2018-10-21T16:55:45.486Z,17.50
2018-10-21T16:58:13.731Z,17.40
2018-10-21T17:00:42.329Z,17.30
2018-10-21T17:03:10.480Z,17.20
2018-10-21T17:05:38.806Z,17.10
2018-10-21T17:08:07.071Z,17.00
2018-10-21T17:10:35.639Z,16.90
2018-10-21T17:13:03.591Z,16.80
2018-10-21T17:15:31.794Z,16.70
2018-10-21T17:18:00.043Z,16.60
2018-10-21T17:20:28.288Z,16.50
2018-10-21T17:22:56.493Z,16.50
2018-10-21T17:25:24.714Z,16.40
2018-10-21T17:27:52.922Z,16.30
2018-10-21T17:30:21.210Z,16.20
2018-10-21T17:32:49.442Z,16.20
2018-10-21T17:35:17.723Z,16.10
2018-10-21T17:37:45.947Z,16.00
2018-10-21T17:40:14.250Z,15.90
2018-10-21T17:42:42.462Z,15.90
2018-10-21T17:45:12.799Z,15.80
2018-10-21T17:47:41.259Z,15.70
2018-10-21T17:50:10.907Z,15.70
2018-10-21T17:52:39.171Z,15.60
2018-10-21T17:55:07.480Z,15.50
2018-10-21T17:57:35.699Z,15.40
2018-10-21T18:00:03.942Z,15.40
2018-10-21T18:02:32.198Z,15.30
2018-10-21T18:05:00.410Z,15.20
2018-10-21T18:07:28.716Z,15.20
2018-10-21T18:09:56.998Z,15.10
2018-10-21T18:12:25.162Z,15.00
2018-10-21T18:14:53.428Z,15.00
2018-10-21T18:17:21.917Z,14.90
2018-10-21T18:19:50.202Z,14.80
2018-10-21T18:22:18.474Z,14.80
2018-10-21T18:24:46.611Z,14.70
2018-10-21T18:27:14.854Z,14.70
2018-10-21T18:29:43.191Z,14.60
2018-10-21T18:32:11.423Z,14.50
2018-10-21T18:34:39.936Z,14.50
2018-10-21T18:37:08.876Z,14.40
2018-10-21T18:39:37.218Z,14.30
2018-10-21T18:42:05.938Z,14.30
2018-10-21T18:44:34.167Z,14.20
2018-10-21T18:47:02.896Z,14.10
2018-10-21T18:49:31.131Z,14.10
2018-10-21T18:51:59.405Z,14.00
2018-10-21T18:54:27.578Z,14.00
2018-10-21T18:56:55.811Z,14.00
2018-10-21T18:59:24.015Z,13.90
2018-10-21T19:01:52.252Z,13.90
2018-10-21T19:04:20.471Z,13.90
2018-10-21T19:06:48.895Z,13.90
2018-10-21T19:09:17.128Z,13.80
2018-10-21T19:11:45.339Z,13.80
2018-10-21T19:14:13.582Z,13.80
2018-10-21T19:16:42.195Z,13.80
2018-10-21T19:19:10.460Z,13.70
2018-10-21T19:21:38.759Z,13.70
2018-10-21T19:24:07.055Z,13.70
2018-10-21T19:26:35.516Z,13.60
2018-10-21T19:29:35.189Z,13.60
2018-10-21T19:32:03.467Z,13.50
2018-10-21T19:34:31.681Z,13.50
2018-10-21T19:37:00.036Z,13.40
2018-10-21T19:39:28.248Z,13.40
2018-10-21T19:41:56.514Z,13.30
2018-10-21T19:44:24.773Z,13.30
2018-10-21T19:46:53.044Z,13.20
2018-10-21T19:49:21.412Z,13.10
2018-10-21T19:51:49.688Z,13.10
2018-10-21T19:54:17.952Z,13.10
2018-10-21T19:56:46.189Z,13.00
2018-10-21T19:59:14.489Z,13.00
2018-10-21T20:01:42.919Z,13.00
2018-10-21T20:04:11.243Z,13.00
2018-10-21T20:06:39.501Z,12.90
2018-10-21T20:09:09.195Z,12.90
2018-10-21T20:11:38.092Z,12.90
2018-10-21T20:14:06.822Z,12.90
2018-10-21T20:16:35.113Z,12.80
2018-10-21T20:19:03.750Z,12.80
2018-10-21T20:21:31.976Z,12.70
2018-10-21T20:24:01.982Z,12.70
2018-10-21T20:26:30.391Z,12.70
2018-10-21T20:28:58.636Z,12.70
2018-10-21T20:31:26.898Z,12.70
2018-10-21T20:33:55.208Z,12.70
2018-10-21T20:36:30.720Z,12.60
2018-10-21T20:38:59.249Z,12.60
2018-10-21T20:41:27.669Z,12.60
2018-10-21T20:43:55.994Z,12.50
2018-10-21T20:46:24.228Z,12.50
2018-10-21T20:48:52.869Z,12.50
2018-10-21T20:51:21.194Z,12.50
2018-10-21T20:53:49.420Z,12.40
2018-10-21T20:56:17.884Z,12.40
2018-10-21T20:58:46.323Z,12.40
2018-10-21T21:01:14.590Z,12.40
2018-10-21T21:03:42.910Z,12.30
2018-10-21T21:06:11.245Z,12.40
2018-10-21T21:08:39.692Z,12.50
2018-10-21T21:11:08.815Z,12.50
2018-10-21T21:13:37.294Z,12.50
2018-10-21T21:16:06.026Z,12.40
2018-10-21T21:18:34.232Z,12.50
2018-10-21T21:21:02.539Z,12.50
2018-10-21T21:23:30.742Z,12.60
2018-10-21T21:25:59.030Z,12.70
2018-10-21T21:28:27.247Z,12.70
2018-10-21T21:30:55.602Z,12.80
2018-10-21T21:33:23.818Z,12.90
2018-10-21T21:35:52.026Z,13.00
2018-10-21T21:38:20.324Z,13.00
2018-10-21T21:40:48.526Z,13.10
2018-10-21T21:43:16.733Z,13.10
2018-10-21T21:45:44.970Z,13.10
2018-10-21T21:48:13.368Z,13.20
2018-10-21T21:50:41.578Z,13.20
2018-10-21T21:53:09.848Z,13.20
2018-10-21T21:55:38.123Z,13.20
2018-10-21T21:58:06.559Z,13.30
2018-10-21T22:00:34.814Z,13.30
2018-10-21T22:03:03.037Z,13.30
2018-10-21T22:05:31.275Z,13.30
2018-10-21T22:07:59.509Z,13.40
2018-10-21T22:10:27.748Z,13.30
2018-10-21T22:12:55.966Z,13.20
2018-10-21T22:15:24.219Z,13.10
2018-10-21T22:17:52.431Z,13.10
2018-10-21T22:20:20.647Z,13.20
2018-10-21T22:22:48.853Z,13.30
2018-10-21T22:25:17.070Z,13.30
2018-10-21T22:27:45.334Z,13.30
2018-10-21T22:30:13.629Z,13.10
2018-10-21T22:32:41.971Z,13.10
2018-10-21T22:35:10.295Z,13.10
2018-10-21T22:37:38.591Z,13.20
2018-10-21T22:40:06.875Z,13.20
2018-10-21T22:42:35.041Z,13.20
2018-10-21T22:45:03.267Z,13.30
2018-10-21T22:47:31.466Z,13.20
2018-10-21T22:49:59.726Z,13.20
2018-10-21T22:52:27.951Z,13.30
2018-10-21T22:54:56.210Z,13.30
2018-10-21T22:57:24.434Z,13.20
2018-10-21T22:59:52.651Z,13.20
2018-10-21T23:02:20.858Z,13.30
2018-10-21T23:04:49.079Z,13.30
2018-10-21T23:07:17.377Z,13.30
2018-10-21T23:09:46.010Z,13.30
2018-10-21T23:12:14.328Z,13.30
2018-10-21T23:14:42.522Z,13.40
2018-10-21T23:17:10.767Z,13.40
2018-10-21T23:19:41.946Z,13.40
2018-10-21T23:22:10.231Z,13.40
2018-10-21T23:24:39.060Z,13.40
2018-10-21T23:27:07.870Z,13.30
2018-10-21T23:29:36.091Z,13.40
2018-10-21T23:32:04.295Z,13.40
2018-10-21T23:34:32.555Z,13.40
2018-10-21T23:37:00.772Z,13.40
2018-10-21T23:39:29.426Z,13.40
2018-10-21T23:41:58.335Z,13.40
2018-10-21T23:44:26.555Z,13.40
2018-10-21T23:46:54.758Z,13.40
2018-10-21T23:49:22.975Z,13.40
2018-10-21T23:51:51.211Z,13.40
2018-10-21T23:54:19.424Z,13.50
2018-10-21T23:56:47.648Z,13.50
2018-10-21T23:59:15.851Z,13.50
